Time;durP1;ratioP1;P1;durP2;ratioP2;P2;SDS_P1;SDS_P2;PMS_P1;PMS_P2;Temp;Humidity;BMP_temperature;BMP_pressure;BME280_temperature;BME280_humidity;BME280_pressure;Samples;Min_cycle;Max_cycle;Signal;HPM_P1;HPM_P2
2021/09/19 00:01:35;;;;;;;6.35;5.75;;;;;;;18.73;56.07;99329.88;5085179;28;20052;-69
2021/09/19 00:04:00;;;;;;;6.75;5.72;;;;;;;18.71;56.26;99335.94;5079976;28;20024;-69
2021/09/19 00:06:26;;;;;;;7.53;6.30;;;;;;;18.64;56.04;99331.03;5088985;28;20085;-69
2021/09/19 00:08:54;;;;;;;7.45;5.63;;;;;;;18.69;55.77;99338.34;5081078;28;20125;-69
2021/09/19 00:11:21;;;;;;;8.57;5.93;;;;;;;18.75;55.77;99352.97;5082449;28;20028;-69
2021/09/19 00:13:47;;;;;;;5.75;5.15;;;;;;;18.76;55.63;99354.59;5087420;28;20035;-69
2021/09/19 00:16:12;;;;;;;6.85;5.93;;;;;;;18.74;55.74;99357.00;5086714;28;20113;-69
2021/09/19 00:18:38;;;;;;;8.48;6.50;;;;;;;18.72;55.88;99353.75;5075137;28;20048;-69
2021/09/19 00:21:03;;;;;;;5.90;5.30;;;;;;;18.71;55.96;99349.31;5081466;28;20035;-69
2021/09/19 00:23:29;;;;;;;6.68;5.88;;;;;;;18.61;56.03;99348.81;5087521;28;20496;-69
2021/09/19 00:25:54;;;;;;;5.97;5.38;;;;;;;18.58;56.18;99346.78;5086308;28;20027;-69
2021/09/19 00:28:20;;;;;;;7.07;5.35;;;;;;;18.48;56.49;99347.50;5080730;28;20025;-69
2021/09/19 00:30:45;;;;;;;6.20;5.55;;;;;;;18.37;56.64;99350.22;5073470;28;20487;-69
2021/09/19 00:33:11;;;;;;;9.90;5.72;;;;;;;18.27;56.58;99333.97;5072176;28;20023;-69
2021/09/19 00:35:36;;;;;;;7.80;5.35;;;;;;;18.27;56.68;99340.44;5078961;28;20024;-69
2021/09/19 00:38:03;;;;;;;6.47;5.80;;;;;;;18.26;56.58;99338.81;5089195;28;20059;-69
2021/09/19 00:40:28;;;;;;;6.93;5.82;;;;;;;18.11;57.18;99349.19;5087497;28;20093;-69
2021/09/19 00:42:54;;;;;;;5.05;4.57;;;;;;;18.12;56.81;99358.50;5085596;28;20016;-69
2021/09/19 00:45:22;;;;;;;9.20;5.65;;;;;;;18.09;56.98;99358.06;5078390;28;20028;-69
2021/09/19 00:47:48;;;;;;;7.32;5.22;;;;;;;18.20;56.74;99368.69;5082890;28;20023;-69
2021/09/19 00:50:16;;;;;;;9.18;5.45;;;;;;;18.19;56.73;99372.72;5088633;28;20023;-69
2021/09/19 00:52:43;;;;;;;5.88;4.93;;;;;;;18.24;56.61;99369.53;5088187;28;20016;-69
2021/09/19 00:55:09;;;;;;;7.38;5.60;;;;;;;18.28;56.47;99363.88;5083369;28;20403;-69
2021/09/19 00:57:54;;;;;;;6.30;5.47;;;;;;;18.23;56.54;99367.91;5087800;28;20524;-69
2021/09/19 01:00:23;;;;;;;7.63;5.90;;;;;;;18.12;56.71;99369.81;5087480;28;20035;-69
2021/09/19 01:02:49;;;;;;;10.55;6.45;;;;;;;18.14;56.83;99367.41;5086103;28;20047;-69
2021/09/19 01:05:18;;;;;;;5.68;5.10;;;;;;;18.13;56.71;99365.78;5090006;28;20024;-69
2021/09/19 01:07:45;;;;;;;7.67;5.67;;;;;;;18.06;56.63;99370.16;5090792;28;20379;-69
2021/09/19 01:10:12;;;;;;;6.75;5.63;;;;;;;17.97;57.00;99372.47;5081575;28;20027;-69
2021/09/19 01:12:39;;;;;;;6.80;5.32;;;;;;;17.85;57.29;99376.38;5086679;28;20030;-69
2021/09/19 01:15:06;;;;;;;6.22;5.30;;;;;;;17.77;57.21;99380.31;5085758;28;20023;-69
2021/09/19 01:17:32;;;;;;;6.07;5.50;;;;;;;17.76;57.43;99385.19;5087454;28;20024;-69
2021/09/19 01:19:58;;;;;;;6.28;5.68;;;;;;;17.71;57.69;99388.34;5085985;28;20017;-69
2021/09/19 01:22:34;;;;;;;7.80;5.85;;;;;;;17.71;57.82;99396.03;5086072;28;20387;-69
2021/09/19 01:25:02;;;;;;;7.72;6.03;;;;;;;17.60;58.34;99399.53;5085913;28;20071;-69
2021/09/19 01:27:27;;;;;;;9.45;6.47;;;;;;;17.66;57.95;99386.66;5084658;28;20024;-69
2021/09/19 01:29:53;;;;;;;9.52;6.38;;;;;;;17.62;58.08;99390.69;5081527;28;20027;-69
2021/09/19 01:32:22;;;;;;;6.70;5.88;;;;;;;17.62;58.02;99396.34;5079416;28;20025;-69
2021/09/19 01:34:49;;;;;;;7.05;6.10;;;;;;;17.58;58.24;99395.44;5077786;28;20024;-69
2021/09/19 01:37:15;;;;;;;7.20;5.95;;;;;;;17.63;57.89;99389.47;5089905;28;20066;-69
2021/09/19 01:39:40;;;;;;;6.88;5.90;;;;;;;17.66;57.92;99397.97;5090333;28;20047;-69
2021/09/19 01:42:06;;;;;;;11.15;5.63;;;;;;;17.45;58.67;99398.53;5089231;28;20532;-69
2021/09/19 01:44:31;;;;;;;11.68;6.18;;;;;;;17.53;58.05;99382.47;5087990;28;20028;-69
2021/09/19 01:46:57;;;;;;;6.05;5.45;;;;;;;17.58;57.88;99390.63;5089282;28;20501;-69
2021/09/19 01:49:22;;;;;;;6.03;5.38;;;;;;;17.56;57.25;99378.91;5090532;28;20450;-69
2021/09/19 01:51:48;;;;;;;6.28;5.28;;;;;;;17.61;57.16;99389.03;5088960;28;20036;-69
2021/09/19 01:54:14;;;;;;;5.70;5.10;;;;;;;17.58;57.34;99375.66;5085157;28;20030;-69
2021/09/19 01:56:40;;;;;;;6.72;5.85;;;;;;;17.63;57.14;99375.34;5084909;28;20036;-69
2021/09/19 01:59:05;;;;;;;6.63;6.00;;;;;;;17.62;57.10;99379.38;5088245;28;20466;-69
2021/09/19 02:01:31;;;;;;;5.80;5.10;;;;;;;17.70;56.98;99385.91;5090555;28;20048;-69
2021/09/19 02:03:56;;;;;;;6.15;5.55;;;;;;;17.67;56.83;99387.50;5089578;28;20023;-69
2021/09/19 02:06:22;;;;;;;6.03;5.38;;;;;;;17.73;56.67;99380.28;5088521;28;20019;-69
2021/09/19 02:08:49;;;;;;;6.57;4.85;;;;;;;17.75;56.83;99388.38;5088957;28;20439;-69
2021/09/19 02:11:15;;;;;;;7.22;5.57;;;;;;;17.76;56.86;99382.34;5089728;28;20024;-69
2021/09/19 02:13:43;;;;;;;5.90;5.30;;;;;;;17.64;57.52;99385.44;5088086;28;20424;-69
2021/09/19 02:16:10;;;;;;;5.68;5.07;;;;;;;17.77;57.41;99369.00;5090161;28;20024;-69
2021/09/19 02:18:35;;;;;;;8.25;6.28;;;;;;;17.74;57.57;99370.63;5090126;28;20051;-69
2021/09/19 02:21:06;;;;;;;18.48;5.85;;;;;;;17.68;57.63;99358.00;5090201;28;20524;-69
2021/09/19 02:23:31;;;;;;;6.28;5.68;;;;;;;17.57;58.34;99357.06;5091027;28;20107;-69
2021/09/19 02:25:57;;;;;;;7.07;5.85;;;;;;;17.56;57.89;99352.63;5093926;28;20180;-69
2021/09/19 02:28:23;;;;;;;6.63;5.88;;;;;;;17.53;58.19;99343.72;5090890;28;20040;-69
2021/09/19 02:30:49;;;;;;;6.05;4.68;;;;;;;17.50;58.23;99343.66;5091326;28;20042;-69
2021/09/19 02:33:15;;;;;;;5.63;5.13;;;;;;;17.60;57.37;99333.66;5091772;28;20062;-69
2021/09/19 02:35:41;;;;;;;15.90;4.95;;;;;;;17.53;57.77;99340.88;5088103;28;20107;-69
2021/09/19 02:38:07;;;;;;;6.22;4.82;;;;;;;17.52;57.93;99332.78;5089973;28;20066;-69
2021/09/19 02:40:32;;;;;;;7.43;5.38;;;;;;;17.48;58.23;99326.28;5088585;28;20031;-69
2021/09/19 02:42:58;;;;;;;6.50;5.53;;;;;;;17.50;57.83;99318.22;5089195;28;20024;-69
2021/09/19 02:45:24;;;;;;;7.13;5.40;;;;;;;17.42;57.88;99320.16;5089572;28;20055;-69
2021/09/19 02:47:49;;;;;;;7.70;5.20;;;;;;;17.44;57.86;99320.56;5092412;28;20043;-69
2021/09/19 02:50:19;;;;;;;5.75;5.25;;;;;;;17.52;57.40;99324.28;5089384;28;20028;-69
2021/09/19 02:52:45;;;;;;;7.45;5.72;;;;;;;17.59;57.14;99323.56;5090870;28;20017;-69
2021/09/19 02:55:12;;;;;;;5.55;5.00;;;;;;;17.44;57.65;99329.06;5092996;28;20078;-69
2021/09/19 02:57:37;;;;;;;8.32;6.25;;;;;;;17.24;57.97;99332.03;5086899;28;20024;-69
2021/09/19 03:00:08;;;;;;;7.65;4.72;;;;;;;17.16;58.28;99335.16;5089174;28;20099;-69
2021/09/19 03:02:34;;;;;;;8.05;5.47;;;;;;;17.06;58.74;99331.00;5089026;28;20044;-69
2021/09/19 03:05:00;;;;;;;7.40;5.20;;;;;;;16.98;59.39;99330.84;5091616;28;20028;-69
2021/09/19 03:07:25;;;;;;;5.80;5.20;;;;;;;16.85;59.96;99335.09;5086807;28;20024;-69
2021/09/19 03:09:51;;;;;;;6.50;5.28;;;;;;;16.80;60.31;99330.59;5092260;28;20027;-69
2021/09/19 03:12:16;;;;;;;5.75;5.10;;;;;;;16.87;60.09;99334.72;5092036;28;20544;-69
2021/09/19 03:14:42;;;;;;;6.97;6.07;;;;;;;16.90;59.76;99320.66;5089648;28;20116;-69
2021/09/19 03:17:07;;;;;;;7.90;5.35;;;;;;;16.82;60.15;99330.22;5087517;28;20040;-69
2021/09/19 03:19:32;;;;;;;7.55;5.63;;;;;;;16.83;59.92;99329.84;5088267;28;20039;-69
2021/09/19 03:21:58;;;;;;;6.65;5.32;;;;;;;16.77;59.65;99325.72;5088250;28;20024;-69
2021/09/19 03:24:23;;;;;;;8.23;5.47;;;;;;;16.61;60.07;99330.72;5087311;28;20038;-69
2021/09/19 03:26:49;;;;;;;6.85;5.45;;;;;;;16.50;59.71;99322.91;5087878;28;20028;-69
2021/09/19 03:29:14;;;;;;;7.28;5.40;;;;;;;16.55;59.20;99330.22;5088406;28;20024;-69
2021/09/19 03:31:40;;;;;;;8.98;5.50;;;;;;;16.58;58.67;99328.63;5089784;28;20031;-69
2021/09/19 03:34:05;;;;;;;8.07;7.05;;;;;;;16.63;58.49;99320.66;5087036;28;20099;-69
2021/09/19 03:36:31;;;;;;;7.18;5.80;;;;;;;16.60;58.31;99332.72;5092138;28;20036;-69
2021/09/19 03:38:56;;;;;;;5.47;4.97;;;;;;;16.49;59.24;99332.56;5086237;28;20576;-69
2021/09/19 03:41:22;;;;;;;6.88;5.65;;;;;;;16.39;59.49;99338.84;5079940;28;20521;-69
2021/09/19 03:43:47;;;;;;;6.70;5.32;;;;;;;16.49;59.10;99338.22;5088078;28;20683;-69
2021/09/19 03:46:13;;;;;;;6.82;5.95;;;;;;;16.46;59.75;99338.16;5074499;28;20031;-69
2021/09/19 03:48:38;;;;;;;5.47;4.97;;;;;;;16.45;59.79;99328.06;5074750;28;20033;-69
2021/09/19 03:51:04;;;;;;;10.48;5.75;;;;;;;16.39;60.16;99336.03;5088209;28;20024;-69
2021/09/19 03:53:29;;;;;;;8.32;6.22;;;;;;;16.44;60.37;99338.50;5086801;28;20119;-69
2021/09/19 03:55:55;;;;;;;14.27;6.00;;;;;;;16.42;60.17;99333.25;5087201;28;20118;-69
2021/09/19 03:58:22;;;;;;;9.95;5.95;;;;;;;16.36;60.41;99326.28;5087240;28;20019;-69
2021/09/19 04:00:48;;;;;;;6.53;5.88;;;;;;;16.36;60.32;99329.13;5089217;28;20043;-69
2021/09/19 04:03:13;;;;;;;7.75;5.60;;;;;;;16.21;60.56;99328.06;5080366;28;20020;-69
2021/09/19 04:05:39;;;;;;;11.35;5.60;;;;;;;16.08;61.25;99330.28;5078628;28;20028;-69
2021/09/19 04:08:05;;;;;;;7.07;4.75;;;;;;;16.19;61.00;99329.66;5086361;28;20128;-69
2021/09/19 04:10:31;;;;;;;6.53;4.75;;;;;;;16.10;61.25;99332.69;5086806;28;20067;-69
2021/09/19 04:12:57;;;;;;;12.13;4.97;;;;;;;16.14;61.55;99330.78;5087717;28;20024;-69
2021/09/19 04:15:22;;;;;;;10.05;5.20;;;;;;;16.09;61.43;99336.72;5086784;28;20043;-69
2021/09/19 04:17:48;;;;;;;11.38;6.05;;;;;;;16.14;61.41;99336.41;5087185;28;20081;-69
2021/09/19 04:20:13;;;;;;;6.90;5.28;;;;;;;15.99;62.21;99336.16;5086080;28;20557;-68
2021/09/19 04:22:40;;;;;;;8.35;5.53;;;;;;;16.02;61.68;99330.97;5087566;28;20141;-69
2021/09/19 04:25:07;;;;;;;9.23;5.40;;;;;;;16.01;61.80;99327.31;5085203;28;20028;-68
2021/09/19 04:27:32;;;;;;;7.70;5.40;;;;;;;15.90;62.74;99317.84;5086119;28;20360;-68
2021/09/19 04:29:58;;;;;;;12.15;5.97;;;;;;;15.93;62.64;99317.09;5082778;28;20058;-68
2021/09/19 04:32:23;;;;;;;10.32;6.25;;;;;;;16.18;61.80;99322.38;5087017;28;20024;-69
2021/09/19 04:34:49;;;;;;;8.77;5.60;;;;;;;16.26;61.57;99324.09;5087520;28;20035;-68
2021/09/19 04:37:16;;;;;;;8.05;5.22;;;;;;;16.24;61.92;99332.13;5087695;28;20052;-69
2021/09/19 04:39:43;;;;;;;15.48;5.85;;;;;;;16.25;61.95;99343.06;5085724;28;20035;-72
2021/09/19 04:42:10;;;;;;;9.50;5.55;;;;;;;16.21;62.35;99349.81;5085831;28;20016;-70
2021/09/19 04:44:36;;;;;;;19.52;6.20;;;;;;;16.11;62.68;99354.91;5073144;28;20074;-70
2021/09/19 04:47:02;;;;;;;8.30;5.28;;;;;;;16.28;62.12;99361.22;5084516;28;20023;-70
2021/09/19 04:49:27;;;;;;;7.32;6.15;;;;;;;16.38;61.96;99359.78;5085518;28;20030;-70
2021/09/19 04:51:53;;;;;;;9.02;5.55;;;;;;;16.39;62.29;99353.75;5078918;28;20032;-70
2021/09/19 04:54:18;;;;;;;9.77;6.10;;;;;;;16.57;62.03;99341.97;5080481;28;20020;-70
2021/09/19 04:56:44;;;;;;;18.50;12.10;;;;;;;16.74;61.63;99348.25;5085644;28;20498;-69
2021/09/19 04:59:09;;;;;;;14.15;11.23;;;;;;;16.78;61.38;99346.31;5088070;28;20024;-72
2021/09/19 05:01:35;;;;;;;9.93;6.93;;;;;;;16.86;61.27;99353.69;5086472;28;20423;-70
2021/09/19 05:04:00;;;;;;;8.95;5.95;;;;;;;16.96;60.85;99353.03;5086836;28;20027;-70
2021/09/19 05:06:26;;;;;;;6.93;5.95;;;;;;;17.00;60.92;99352.28;5087538;28;20384;-68
2021/09/19 05:08:51;;;;;;;14.32;6.00;;;;;;;17.11;60.84;99348.44;5090579;28;20028;-68
2021/09/19 05:11:17;;;;;;;7.82;5.90;;;;;;;17.13;60.51;99353.69;5089048;28;20158;-68
2021/09/19 05:13:42;;;;;;;5.63;4.97;;;;;;;17.17;60.04;99348.91;5089684;28;20023;-71
2021/09/19 05:16:08;;;;;;;8.77;5.47;;;;;;;17.21;59.81;99358.25;5089078;28;20046;-69
2021/09/19 05:18:33;;;;;;;5.93;5.43;;;;;;;17.28;60.11;99356.72;5086897;28;20687;-68
2021/09/19 05:21:00;;;;;;;6.63;5.40;;;;;;;17.34;59.89;99352.34;5087289;28;20028;-68
2021/09/19 05:23:26;;;;;;;6.13;4.88;;;;;;;17.35;59.84;99348.31;5087101;28;20073;-68
2021/09/19 05:25:52;;;;;;;5.22;4.75;;;;;;;17.29;60.23;99345.00;5088819;28;20028;-68
2021/09/19 05:28:17;;;;;;;10.30;5.80;;;;;;;17.44;59.88;99339.56;5090464;28;20020;-68
2021/09/19 05:30:43;;;;;;;6.55;5.38;;;;;;;17.52;59.90;99333.59;5085524;28;20023;-69
2021/09/19 05:33:08;;;;;;;8.35;5.25;;;;;;;17.56;59.36;99332.81;5081409;28;20020;-68
2021/09/19 05:35:34;;;;;;;8.30;5.30;;;;;;;17.64;59.17;99337.38;5084654;28;21436;-68
2021/09/19 05:38:04;;;;;;;6.70;5.32;;;;;;;17.75;58.41;99337.47;5084871;28;20035;-68
2021/09/19 05:40:29;;;;;;;10.00;4.88;;;;;;;17.76;58.29;99333.44;5089550;28;20032;-68
2021/09/19 05:42:55;;;;;;;6.50;5.82;;;;;;;17.87;58.75;99344.91;5081382;28;20051;-68
2021/09/19 05:45:20;;;;;;;13.38;7.00;;;;;;;18.03;58.14;99348.31;5078774;28;20430;-68
2021/09/19 05:47:46;;;;;;;9.93;6.30;;;;;;;18.03;57.36;99341.81;5080358;28;20019;-68
2021/09/19 05:50:11;;;;;;;6.13;5.53;;;;;;;18.03;57.46;99333.34;5081503;28;20027;-68
2021/09/19 05:52:37;;;;;;;10.35;5.95;;;;;;;18.03;57.29;99337.00;5090615;28;20028;-68
2021/09/19 05:55:03;;;;;;;17.92;6.28;;;;;;;18.13;57.38;99337.50;5089129;28;20024;-68
2021/09/19 05:57:28;;;;;;;7.57;6.28;;;;;;;18.17;56.73;99335.50;5085342;28;20506;-68
2021/09/19 05:59:54;;;;;;;15.57;4.90;;;;;;;18.29;56.34;99332.38;5087059;28;20095;-67
2021/09/19 06:02:19;;;;;;;6.72;4.90;;;;;;;18.41;55.83;99328.44;5081239;28;20106;-67
2021/09/19 06:04:45;;;;;;;8.65;5.05;;;;;;;18.37;55.75;99325.56;5075395;28;20502;-67
2021/09/19 06:07:11;;;;;;;19.52;7.90;;;;;;;18.37;56.31;99333.25;5086629;28;20464;-68
2021/09/19 06:09:37;;;;;;;10.98;7.63;;;;;;;18.59;55.62;99347.56;5089468;28;20024;-68
2021/09/19 06:12:03;;;;;;;10.15;6.60;;;;;;;18.57;55.88;99342.28;5090350;28;20109;-67
2021/09/19 06:14:28;;;;;;;10.18;6.60;;;;;;;18.61;56.16;99336.66;5092734;28;20106;-67
2021/09/19 06:16:54;;;;;;;7.68;5.40;;;;;;;18.73;55.46;99333.50;5087307;28;20031;-67
2021/09/19 06:19:19;;;;;;;8.35;5.88;;;;;;;18.78;55.19;99338.00;5081890;28;20498;-67
2021/09/19 06:21:45;;;;;;;6.50;5.60;;;;;;;18.83;54.85;99336.81;5093462;28;20046;-67
2021/09/19 06:24:10;;;;;;;8.48;4.85;;;;;;;18.90;55.05;99342.53;5089740;28;20020;-67
2021/09/19 06:26:36;;;;;;;6.15;5.55;;;;;;;19.13;54.32;99350.78;5089885;28;20028;-67
2021/09/19 06:29:01;;;;;;;11.48;4.97;;;;;;;19.05;53.86;99358.44;5091016;28;20016;-67
2021/09/19 06:31:27;;;;;;;10.90;3.80;;;;;;;19.15;53.11;99359.72;5093276;28;20030;-67
2021/09/19 06:33:53;;;;;;;14.55;4.18;;;;;;;19.07;53.57;99349.56;5092316;28;20024;-68
2021/09/19 06:36:18;;;;;;;5.88;3.65;;;;;;;19.20;53.25;99345.19;5072601;28;20107;-68
2021/09/19 06:38:44;;;;;;;9.63;4.80;;;;;;;19.21;53.03;99348.81;5081126;28;20505;-68
2021/09/19 06:41:09;;;;;;;8.27;4.53;;;;;;;19.35;52.95;99359.41;5088860;28;20125;-68
2021/09/19 06:43:35;;;;;;;8.13;4.38;;;;;;;19.60;52.35;99358.72;5089807;28;20020;-68
2021/09/19 06:46:00;;;;;;;8.55;4.45;;;;;;;19.71;52.05;99364.41;5087738;28;20035;-69
2021/09/19 06:48:26;;;;;;;10.18;4.38;;;;;;;19.72;51.94;99369.69;5079333;28;20701;-68
2021/09/19 06:50:52;;;;;;;6.13;4.30;;;;;;;19.75;52.19;99376.59;5088963;28;20016;-68
2021/09/19 06:53:17;;;;;;;5.45;4.60;;;;;;;19.95;51.80;99367.75;5073558;28;20107;-68
2021/09/19 06:55:43;;;;;;;10.35;4.57;;;;;;;19.89;51.45;99372.97;5078885;28;20039;-68
2021/09/19 06:58:08;;;;;;;9.15;4.30;;;;;;;20.01;51.68;99364.13;5085517;28;20020;-68
2021/09/19 07:00:34;;;;;;;8.73;5.07;;;;;;;20.14;51.23;99361.72;5087386;28;20027;-71
2021/09/19 07:02:59;;;;;;;7.95;4.47;;;;;;;20.18;51.07;99356.03;5088674;28;20075;-69
2021/09/19 07:05:25;;;;;;;6.28;4.43;;;;;;;20.24;51.20;99345.91;5076834;28;20411;-68
2021/09/19 07:07:50;;;;;;;4.65;3.60;;;;;;;20.31;51.12;99348.75;5090617;28;20035;-67
2021/09/19 07:10:16;;;;;;;8.77;5.80;;;;;;;20.40;51.17;99351.19;5092686;28;20072;-67
2021/09/19 07:12:41;;;;;;;9.57;4.95;;;;;;;20.54;50.38;99344.69;5085082;28;20039;-69
2021/09/19 07:15:08;;;;;;;12.10;5.50;;;;;;;20.72;50.33;99355.22;5088978;28;20024;-71
2021/09/19 07:17:33;;;;;;;15.93;7.50;;;;;;;20.84;50.26;99351.19;5081270;28;20099;-69
2021/09/19 07:20:00;;;;;;;8.35;4.47;;;;;;;20.99;49.89;99354.81;5081940;28;20138;-69
2021/09/19 07:22:28;;;;;;;5.93;4.93;;;;;;;21.13;50.14;99356.81;5082509;28;20040;-71
2021/09/19 07:24:54;;;;;;;7.05;3.90;;;;;;;21.28;49.52;99346.22;5079385;28;20021;-72
2021/09/19 07:27:20;;;;;;;8.88;4.00;;;;;;;21.62;49.77;99339.97;5083779;28;20098;-72
2021/09/19 07:29:46;;;;;;;12.15;4.22;;;;;;;22.00;48.31;99325.13;5091392;28;20073;-72
2021/09/19 07:32:13;;;;;;;177.93;79.28;;;;;;;22.24;49.60;99334.75;5081101;28;20035;-72
2021/09/19 07:34:42;;;;;;;16.55;7.20;;;;;;;22.26;45.83;99328.59;5088200;28;20101;-72
2021/09/19 07:37:08;;;;;;;14.80;5.90;;;;;;;22.46;47.97;99323.19;5085848;28;20024;-74
2021/09/19 07:39:37;;;;;;;17.48;7.90;;;;;;;22.88;47.33;99316.69;5089749;28;20024;-73
2021/09/19 07:42:03;;;;;;;11.05;4.50;;;;;;;23.16;45.94;99314.75;5088281;28;20027;-72
2021/09/19 07:44:29;;;;;;;25.50;12.23;;;;;;;23.44;47.61;99301.41;5088484;28;20514;-73
2021/09/19 07:46:56;;;;;;;14.77;4.57;;;;;;;23.77;45.16;99298.91;5088734;28;20620;-73
2021/09/19 07:49:22;;;;;;;17.05;3.85;;;;;;;23.75;42.29;99302.22;5091443;28;20008;-74
2021/09/19 07:51:48;;;;;;;15.45;3.90;;;;;;;23.95;44.37;99307.19;5090228;28;20020;-73
2021/09/19 07:54:14;;;;;;;7.22;3.00;;;;;;;23.83;43.04;99302.91;5089498;28;20505;-74
2021/09/19 07:56:41;;;;;;;9.60;4.78;;;;;;;23.90;43.95;99297.09;5088081;28;20562;-74
2021/09/19 07:59:07;;;;;;;11.95;4.50;;;;;;;24.04;45.00;99303.84;5084233;28;20027;-73
2021/09/19 08:01:33;;;;;;;19.77;4.60;;;;;;;23.93;42.97;99292.56;5082121;28;20051;-73
2021/09/19 08:03:58;;;;;;;7.97;4.30;;;;;;;24.45;42.27;99299.91;5083239;28;20023;-73
2021/09/19 08:06:24;;;;;;;24.75;5.43;;;;;;;24.30;41.25;99307.13;5084360;28;20032;-73
2021/09/19 08:08:51;;;;;;;11.30;9.68;;;;;;;24.46;41.57;99312.94;5080025;28;20106;-73
2021/09/19 08:11:17;;;;;;;14.23;7.63;;;;;;;24.50;41.56;99308.00;5071059;28;20115;-73
2021/09/19 08:13:43;;;;;;;14.00;4.88;;;;;;;24.40;41.90;99301.22;5073988;28;20572;-74
2021/09/19 08:16:10;;;;;;;6.20;3.90;;;;;;;24.61;41.86;99299.22;5074153;28;20016;-76
2021/09/19 08:18:36;;;;;;;21.33;9.77;;;;;;;24.54;41.11;99299.34;5082766;28;20032;-73
2021/09/19 08:21:03;;;;;;;50.92;45.67;;;;;;;24.60;42.29;99299.66;5085119;28;20493;-74
2021/09/19 08:23:29;;;;;;;24.35;17.92;;;;;;;24.45;42.20;99310.56;5082977;28;20031;-73
2021/09/19 08:25:55;;;;;;;8.95;4.45;;;;;;;24.21;41.52;99311.31;5089426;28;20394;-75
2021/09/19 08:28:21;;;;;;;13.43;3.45;;;;;;;23.95;41.71;99301.50;5074619;28;20047;-75
2021/09/19 08:30:46;;;;;;;7.53;2.88;;;;;;;23.72;41.75;99299.41;5076342;28;20020;-76
2021/09/19 08:33:12;;;;;;;14.05;3.58;;;;;;;23.51;42.24;99299.28;5081789;28;20782;-75
2021/09/19 08:35:39;;;;;;;18.95;3.83;;;;;;;23.48;42.98;99307.88;5081674;28;20024;-75
2021/09/19 08:38:04;;;;;;;4.20;3.35;;;;;;;23.48;43.76;99307.88;5087561;28;20149;-75
2021/09/19 08:40:30;;;;;;;4.10;3.70;;;;;;;23.42;44.11;99314.06;5081434;28;20098;-74
2021/09/19 08:42:55;;;;;;;11.43;4.03;;;;;;;23.28;44.24;99317.06;5072450;28;20116;-75
2021/09/19 08:45:22;;;;;;;11.10;3.17;;;;;;;23.28;42.85;99308.53;5081335;28;20046;-72
2021/09/19 08:47:51;;;;;;;13.90;3.53;;;;;;;23.14;43.24;99312.34;5082744;28;20467;-74
2021/09/19 08:50:20;;;;;;;7.28;3.47;;;;;;;23.19;43.19;99302.50;5077254;28;20028;-75
2021/09/19 08:52:46;;;;;;;8.03;3.50;;;;;;;23.11;43.79;99305.44;5082141;28;20846;-73
2021/09/19 08:55:12;;;;;;;10.30;3.70;;;;;;;23.19;43.39;99302.50;5082603;28;20028;-76
2021/09/19 08:57:39;;;;;;;7.35;4.22;;;;;;;23.19;43.96;99293.94;5073561;28;20560;-76
2021/09/19 09:00:16;;;;;;;8.98;3.70;;;;;;;23.32;44.61;99292.19;5074621;28;20034;-75
2021/09/19 09:02:54;;;;;;;9.57;3.30;;;;;;;23.37;44.58;99279.50;5080735;28;20078;-74
2021/09/19 09:05:28;;;;;;;11.45;3.80;;;;;;;23.38;45.39;99278.25;5076641;28;20100;-74
2021/09/19 09:07:56;;;;;;;6.95;3.45;;;;;;;23.45;45.17;99289.56;5087043;28;20506;-76
2021/09/19 09:10:33;;;;;;;11.30;3.72;;;;;;;23.47;44.20;99281.41;5085377;28;20107;-74
2021/09/19 09:13:05;;;;;;;10.30;4.05;;;;;;;23.64;44.50;99267.28;5083833;28;20024;-74
2021/09/19 09:15:37;;;;;;;5.53;4.03;;;;;;;23.80;44.08;99263.81;5088694;28;20032;-74
2021/09/19 09:18:04;;;;;;;5.85;4.70;;;;;;;23.92;44.08;99256.66;5084632;28;20039;-74
2021/09/19 09:21:04;;;;;;;6.05;3.85;;;;;;;24.17;43.17;99267.72;5088949;28;20043;-75
2021/09/19 09:23:39;;;;;;;5.18;4.38;;;;;;;24.08;43.98;99276.84;5087584;28;20498;-75
2021/09/19 09:26:08;;;;;;;5.07;4.00;;;;;;;24.29;43.15;99276.94;5089655;28;20028;-75
2021/09/19 09:28:52;;;;;;;7.40;4.60;;;;;;;24.33;42.57;99264.19;5090393;28;20032;-74
2021/09/19 09:31:22;;;;;;;4.90;4.07;;;;;;;24.38;42.13;99265.75;5088324;28;20114;-75
2021/09/19 09:34:21;;;;;;;7.97;3.00;;;;;;;24.47;42.29;99259.47;5086805;28;20028;-75
2021/09/19 09:37:18;;;;;;;10.48;4.18;;;;;;;24.66;42.76;99260.75;5097494;28;20064;-75
2021/09/19 09:39:43;;;;;;;10.18;3.60;;;;;;;24.65;42.60;99265.66;5067737;28;20032;-78
2021/09/19 09:42:19;;;;;;;6.93;3.17;;;;;;;24.74;41.49;99255.69;5095481;28;20028;-78
2021/09/19 09:44:50;;;;;;;9.73;2.92;;;;;;;24.85;41.63;99261.22;5094587;28;20024;-79
2021/09/19 09:47:22;;;;;;;6.95;3.10;;;;;;;24.84;42.06;99251.88;5095939;28;20790;-78
2021/09/19 09:49:48;;;;;;;7.55;3.45;;;;;;;24.92;41.30;99253.34;5097362;28;20395;-77
2021/09/19 09:52:22;;;;;;;4.25;2.83;;;;;;;24.80;40.92;99246.22;5088494;28;20139;-76
2021/09/19 09:54:54;;;;;;;5.65;3.38;;;;;;;24.97;41.50;99243.41;5086326;28;20028;-76
2021/09/19 09:57:35;;;;;;;3.47;2.50;;;;;;;25.07;41.63;99233.81;5090450;28;20105;-76
2021/09/19 10:00:06;;;;;;;5.53;2.90;;;;;;;25.02;41.23;99234.34;5087432;28;20102;-76
2021/09/19 10:02:33;;;;;;;3.10;2.75;;;;;;;25.02;41.10;99227.78;5084781;28;20040;-74
2021/09/19 10:04:59;;;;;;;6.43;2.55;;;;;;;24.97;41.29;99226.25;5086094;28;20047;-77
2021/09/19 10:07:25;;;;;;;111.03;10.85;;;;;;;25.15;40.51;99233.66;5086238;28;20028;-74
2021/09/19 10:09:51;;;;;;;4.35;2.90;;;;;;;24.94;40.89;99238.59;5080351;28;20111;-75
2021/09/19 10:12:21;;;;;;;10.80;4.72;;;;;;;25.04;40.68;99233.88;5072000;28;20139;-76
2021/09/19 10:14:51;;;;;;;8.38;3.22;;;;;;;25.05;40.13;99239.16;5087687;28;20379;-73
2021/09/19 10:17:18;;;;;;;6.47;3.10;;;;;;;25.09;39.75;99236.25;5076842;28;20472;-74
2021/09/19 10:19:43;;;;;;;6.72;2.65;;;;;;;25.22;40.14;99228.59;5092368;28;20020;-75
2021/09/19 10:22:11;;;;;;;6.22;2.92;;;;;;;25.25;39.97;99224.06;5084056;28;20016;-75
2021/09/19 10:24:38;;;;;;;9.52;4.05;;;;;;;25.26;40.43;99219.94;5075022;28;20024;-73
2021/09/19 10:27:22;;;;;;;7.10;3.25;;;;;;;25.39;39.31;99222.91;5087315;28;20427;-72
2021/09/19 10:29:47;;;;;;;8.38;4.05;;;;;;;25.44;40.58;99233.03;5080476;28;20016;-73
2021/09/19 10:32:39;;;;;;;15.38;4.18;;;;;;;25.59;39.73;99224.97;5078307;28;20398;-71
2021/09/19 10:35:18;;;;;;;7.28;4.28;;;;;;;25.47;39.85;99217.84;5079093;28;20024;-72
2021/09/19 10:37:47;;;;;;;6.13;3.38;;;;;;;25.47;39.73;99220.72;5086454;28;20020;-72
2021/09/19 10:40:13;;;;;;;7.47;3.78;;;;;;;25.64;38.40;99219.50;5087329;28;20024;-72
2021/09/19 10:42:49;;;;;;;11.77;3.90;;;;;;;25.79;38.75;99222.03;5086356;28;20035;-72
2021/09/19 10:45:15;;;;;;;11.15;4.40;;;;;;;25.83;39.23;99210.50;5087030;28;20702;-72
2021/09/19 10:47:47;;;;;;;12.38;5.53;;;;;;;26.00;39.37;99208.44;5087411;28;20043;-72
2021/09/19 10:50:22;;;;;;;16.65;3.60;;;;;;;25.99;38.60;99195.38;5087640;28;20028;-73
2021/09/19 10:52:53;;;;;;;6.97;3.67;;;;;;;26.02;38.85;99183.00;5091339;28;20418;-73
2021/09/19 10:55:34;;;;;;;10.07;5.03;;;;;;;26.41;38.05;99175.44;5089281;28;20110;-73
2021/09/19 10:58:11;;;;;;;4.90;3.13;;;;;;;26.46;37.27;99183.50;5086102;28;20096;-73
2021/09/19 11:00:37;;;;;;;9.98;3.13;;;;;;;26.75;37.06;99176.94;5084646;28;20384;-73
2021/09/19 11:03:06;;;;;;;6.07;4.00;;;;;;;26.85;36.11;99166.44;5088942;28;20119;-73
2021/09/19 11:05:33;;;;;;;5.57;2.80;;;;;;;26.97;36.34;99158.31;5087964;28;20031;-73
2021/09/19 11:08:07;;;;;;;8.02;3.63;;;;;;;27.15;36.57;99146.31;5081665;28;20052;-73
2021/09/19 11:10:55;;;;;;;7.32;3.67;;;;;;;26.91;36.48;99135.16;5079053;28;20028;-73
2021/09/19 11:13:30;;;;;;;7.65;3.20;;;;;;;27.00;36.13;99135.28;5084767;28;20547;-71
2021/09/19 11:16:04;;;;;;;8.10;3.65;;;;;;;27.09;36.69;99131.75;5088821;28;20024;-72
2021/09/19 11:18:39;;;;;;;8.38;3.95;;;;;;;27.07;35.77;99124.84;5087483;28;20058;-72
2021/09/19 11:21:11;;;;;;;6.93;4.70;;;;;;;26.99;36.09;99122.19;5086790;28;20131;-72
2021/09/19 11:23:47;;;;;;;6.85;3.85;;;;;;;27.17;35.59;99121.63;5087000;28;20020;-72
2021/09/19 11:26:25;;;;;;;6.18;2.92;;;;;;;27.34;35.32;99127.28;5089966;28;20028;-72
2021/09/19 11:28:54;;;;;;;6.57;3.85;;;;;;;27.30;35.72;99123.69;5091693;28;20468;-72
2021/09/19 11:31:21;;;;;;;9.63;3.53;;;;;;;26.95;35.81;99130.09;5089488;28;20023;-74
2021/09/19 11:33:47;;;;;;;8.98;3.42;;;;;;;26.76;36.33;99129.00;5086371;28;20020;-73